KHBV

Details ICAO KHBV
Name JIM HOGG CO
Region United States
Timezone America/Chicago (UTC-6.0)
Plans Departing 2
Arriving 3
Stats Elevation 663 ft / 202 m (AMSL)
Location 27.349563° -98.736959°
Runways 1
Magnetic Variation 4.380° E
Sunrise 2017-12-14 13:18:18 UTC / 2017-12-14 07:18:18 Local
Sunset 2017-12-14 23:44:01 UTC / 2017-12-14 17:44:01 Local
Advertisement - Login to hide

Runways

ID Width Length Bearing (true) Bearing (mag) Surface Threshold Offset Overrun Length
13 75 ft / 23 m 5,003 ft / 1,525 m 134.39° 130.01° Asphalt 0 ft / 0 m 0 ft / 0 m
31 75 ft / 23 m 5,003 ft / 1,525 m 314.39° 310.01° Asphalt 0 ft / 0 m 0 ft / 0 m

Map

Weather


0- 5 10 15 20 25 30 35+ Temperature / ° C

Clouds and Precipitation
Forecast for 2017-12-15 06:00 UTC. Updated an hour ago

Ground ~20,000 ft ~40,000 ft Winds

METAR

KHBV 150415Z AUTO 02006KT 10SM OVC100 14/07 A3008 RMK AO2 T01390070

TAF

Not found

Frequencies

Recorded 118.07 MHz AWOS 3
Unicom 122.80 MHz CTAF/UNICOM
Warning: Do not use this data for real-world aviation or navigation. No guarantee of current accuracy is given.